createdAt,value
2022-11-05T00:00:15.433Z,0.90
2022-11-05T00:03:00.575Z,0.80
2022-11-05T00:05:46.308Z,0.70
2022-11-05T00:08:31.874Z,0.70
2022-11-05T00:10:58.577Z,0.88
2022-11-05T00:13:57.405Z,0.70
2022-11-05T00:16:42.428Z,1.40
2022-11-05T00:19:10.035Z,1.50
2022-11-05T00:21:57.338Z,1.10
2022-11-05T00:24:43.555Z,1.20
2022-11-05T00:27:10.650Z,1.33
2022-11-05T00:29:37.716Z,0.70
2022-11-05T00:32:04.636Z,0.90
2022-11-05T00:34:31.256Z,0.70
2022-11-05T00:36:57.857Z,0.73
2022-11-05T00:39:24.764Z,0.60
2022-11-05T00:42:11.324Z,0.80
2022-11-05T00:44:56.377Z,0.80
2022-11-05T00:47:41.779Z,0.70
2022-11-05T00:50:10.539Z,0.73
2022-11-05T00:52:55.933Z,0.80
2022-11-05T00:55:24.122Z,0.65
2022-11-05T00:57:51.164Z,0.70
2022-11-05T01:00:18.325Z,0.77
2022-11-05T01:02:45.029Z,0.73
2022-11-05T01:05:12.027Z,0.90
2022-11-05T01:07:38.655Z,0.70
2022-11-05T01:10:05.776Z,0.68
2022-11-05T01:12:32.989Z,0.70
2022-11-05T01:15:00.941Z,0.60
2022-11-05T01:17:27.626Z,0.65
2022-11-05T01:19:54.243Z,0.70
2022-11-05T01:22:20.819Z,0.90
2022-11-05T01:24:47.414Z,0.75
2022-11-05T01:27:14.138Z,0.80
2022-11-05T01:29:41.688Z,0.60
2022-11-05T01:32:08.658Z,0.60
2022-11-05T01:34:35.329Z,0.70
2022-11-05T01:37:02.006Z,0.50
2022-11-05T01:39:28.627Z,0.65
2022-11-05T01:41:55.291Z,0.70
2022-11-05T01:44:52.798Z,0.80
2022-11-05T01:47:46.567Z,0.80
2022-11-05T01:50:20.203Z,0.90
2022-11-05T01:52:48.521Z,0.80
2022-11-05T01:55:24.337Z,0.77
2022-11-05T01:57:55.583Z,0.90
2022-11-05T02:02:48.865Z,1.00
2022-11-05T02:05:15.947Z,1.02
2022-11-05T02:07:44.920Z,0.98
2022-11-05T02:10:14.610Z,0.70
2022-11-05T02:12:45.439Z,0.80
2022-11-05T02:15:14.320Z,0.77
2022-11-05T02:18:15.845Z,0.80
2022-11-05T02:21:24.140Z,0.60
2022-11-05T02:24:31.895Z,0.60
2022-11-05T02:27:20.164Z,0.90
2022-11-05T02:30:07.791Z,0.90
2022-11-05T02:32:43.597Z,0.80
2022-11-05T02:35:52.678Z,0.90
2022-11-05T02:38:31.446Z,1.05
2022-11-05T02:41:19.666Z,1.10
2022-11-05T02:43:58.196Z,0.93
2022-11-05T02:46:32.182Z,1.10
2022-11-05T02:49:25.670Z,1.00
2022-11-05T02:52:25.211Z,1.13
2022-11-05T02:55:05.468Z,1.25
2022-11-05T02:57:36.375Z,1.10
2022-11-05T03:00:27.846Z,1.40
2022-11-05T03:05:27.070Z,1.10
2022-11-05T03:07:59.543Z,1.10
2022-11-05T03:10:41.373Z,0.90
2022-11-05T03:13:14.143Z,1.10
2022-11-05T03:15:55.385Z,0.95
2022-11-05T03:18:27.778Z,1.23
2022-11-05T03:21:05.593Z,1.10
2022-11-05T03:23:46.894Z,1.00
2022-11-05T03:26:23.483Z,1.00
2022-11-05T03:29:00.174Z,1.10
2022-11-05T03:31:29.418Z,0.80
2022-11-05T03:33:58.015Z,1.00
2022-11-05T03:36:33.479Z,1.00
2022-11-05T03:39:04.158Z,0.88
2022-11-05T03:41:33.814Z,1.05
2022-11-05T03:44:04.979Z,0.90
2022-11-05T03:46:36.869Z,1.13
2022-11-05T03:49:08.077Z,0.95
2022-11-05T03:51:53.321Z,1.33
2022-11-05T03:54:20.228Z,1.20
2022-11-05T03:57:09.279Z,1.35
2022-11-05T03:59:42.707Z,1.38
2022-11-05T04:02:11.918Z,1.17
2022-11-05T04:04:39.289Z,1.40
2022-11-05T04:07:25.009Z,1.40
2022-11-05T04:10:10.294Z,1.17
2022-11-05T04:12:55.146Z,1.27
2022-11-05T04:15:21.775Z,1.70
2022-11-05T04:17:48.393Z,2.25
2022-11-05T04:20:33.769Z,5.35
2022-11-05T04:23:21.205Z,4.00
2022-11-05T04:25:47.866Z,3.33
2022-11-05T04:28:14.614Z,3.10
2022-11-05T04:30:41.427Z,1.70
2022-11-05T04:33:15.875Z,1.60
2022-11-05T04:35:48.561Z,1.00
2022-11-05T04:38:17.541Z,1.08
2022-11-05T04:40:45.620Z,1.00
2022-11-05T04:43:15.546Z,0.93
2022-11-05T04:45:42.809Z,1.23
2022-11-05T04:48:09.534Z,1.00
2022-11-05T04:50:36.545Z,1.05
2022-11-05T04:53:03.301Z,0.88
2022-11-05T04:55:29.927Z,1.02
2022-11-05T04:57:56.621Z,0.95
2022-11-05T05:00:23.975Z,0.90
2022-11-05T05:02:50.730Z,0.80
2022-11-05T05:05:17.334Z,0.80
2022-11-05T05:07:44.079Z,0.90
2022-11-05T05:10:11.488Z,1.30
2022-11-05T05:12:38.500Z,1.25
2022-11-05T05:15:05.985Z,1.25
2022-11-05T05:17:32.796Z,1.23
2022-11-05T05:20:18.230Z,1.35
2022-11-05T05:22:51.661Z,1.20
2022-11-05T05:25:18.316Z,1.40
2022-11-05T05:27:44.983Z,1.40
2022-11-05T05:30:11.885Z,1.30
2022-11-05T05:32:38.448Z,1.27
2022-11-05T05:35:05.474Z,1.52
2022-11-05T05:37:32.088Z,1.70
2022-11-05T05:39:58.773Z,1.60
2022-11-05T05:42:25.434Z,1.70
2022-11-05T05:44:52.102Z,1.52
2022-11-05T05:47:18.715Z,1.55
2022-11-05T05:49:45.344Z,2.03
2022-11-05T05:52:12.197Z,1.88
2022-11-05T05:54:42.801Z,2.42
2022-11-05T05:57:10.085Z,1.90
2022-11-05T05:59:36.684Z,1.40
2022-11-05T06:02:03.613Z,1.40
2022-11-05T06:04:30.278Z,1.40
2022-11-05T06:06:57.039Z,1.58
2022-11-05T06:09:23.709Z,2.10
2022-11-05T06:11:50.292Z,1.80
2022-11-05T06:14:16.940Z,1.80
2022-11-05T06:16:43.593Z,1.60
2022-11-05T06:19:10.186Z,1.75
2022-11-05T06:21:37.045Z,1.45
2022-11-05T06:24:04.095Z,1.10
2022-11-05T06:26:31.139Z,1.10
2022-11-05T06:28:57.773Z,1.10
2022-11-05T06:31:24.984Z,0.80
2022-11-05T06:33:51.905Z,1.08
2022-11-05T06:36:20.235Z,0.73
2022-11-05T06:38:48.049Z,0.90
2022-11-05T06:41:15.019Z,0.70
2022-11-05T06:43:43.117Z,0.80
2022-11-05T06:46:11.275Z,0.90
2022-11-05T06:48:39.114Z,0.80
2022-11-05T06:51:07.455Z,0.88
2022-11-05T06:53:34.943Z,0.75
2022-11-05T06:56:04.845Z,0.60
2022-11-05T06:58:32.113Z,0.60
2022-11-05T07:01:10.384Z,1.13
2022-11-05T07:03:38.197Z,0.80
2022-11-05T07:06:06.169Z,1.23
2022-11-05T07:08:34.033Z,0.95
2022-11-05T07:11:01.158Z,0.90
2022-11-05T07:13:27.801Z,1.00
2022-11-05T07:15:54.717Z,0.73
2022-11-05T07:18:21.739Z,0.90
2022-11-05T07:20:49.219Z,1.10
2022-11-05T07:23:16.578Z,1.00
2022-11-05T07:25:44.796Z,1.42
2022-11-05T07:28:11.995Z,1.90
2022-11-05T07:30:38.649Z,1.50
2022-11-05T07:33:05.479Z,1.67
2022-11-05T07:35:32.290Z,2.40
2022-11-05T07:37:59.089Z,1.60
2022-11-05T07:40:27.663Z,2.20
2022-11-05T07:42:57.157Z,1.60
2022-11-05T07:45:24.548Z,1.50
2022-11-05T07:47:56.601Z,2.03
2022-11-05T07:50:25.406Z,2.00
2022-11-05T07:52:52.173Z,1.70
2022-11-05T07:55:20.001Z,1.58
2022-11-05T07:57:48.839Z,1.70
2022-11-05T08:00:21.681Z,1.60
2022-11-05T08:03:10.363Z,1.52
2022-11-05T08:05:39.430Z,1.50
2022-11-05T08:08:08.187Z,1.55
2022-11-05T08:10:35.514Z,1.58
2022-11-05T08:13:02.522Z,1.70
2022-11-05T08:15:29.302Z,1.77
2022-11-05T08:18:16.889Z,1.60
2022-11-05T08:20:45.077Z,1.88
2022-11-05T08:23:12.189Z,1.90
2022-11-05T08:25:39.772Z,1.50
2022-11-05T08:28:12.829Z,1.40
2022-11-05T08:30:39.749Z,1.30
2022-11-05T08:33:12.288Z,1.30
2022-11-05T08:35:40.087Z,0.90
2022-11-05T08:38:08.080Z,0.95
2022-11-05T08:40:36.587Z,1.00
2022-11-05T08:43:05.416Z,0.93
2022-11-05T08:45:32.812Z,1.00
2022-11-05T08:48:04.213Z,1.20
2022-11-05T08:50:31.395Z,1.10
2022-11-05T08:52:58.143Z,1.30
2022-11-05T08:55:25.256Z,1.40
2022-11-05T08:58:01.257Z,1.30
2022-11-05T09:00:30.439Z,1.10
2022-11-05T09:03:02.012Z,1.52
2022-11-05T09:05:30.188Z,1.48
2022-11-05T09:08:00.989Z,1.30
2022-11-05T09:12:55.432Z,1.50
2022-11-05T09:15:23.190Z,1.45
2022-11-05T09:17:50.223Z,1.60
2022-11-05T09:20:16.921Z,8.98
2022-11-05T09:22:43.771Z,1.77
2022-11-05T09:25:10.679Z,1.65
2022-11-05T09:27:37.414Z,1.80
2022-11-05T09:30:05.119Z,2.05
2022-11-05T09:32:32.462Z,2.30
2022-11-05T09:35:01.104Z,2.15
2022-11-05T09:37:28.978Z,2.20
2022-11-05T09:39:55.867Z,2.00
2022-11-05T09:42:26.722Z,1.85
2022-11-05T09:45:03.937Z,2.17
2022-11-05T09:47:37.987Z,1.95
2022-11-05T09:50:14.371Z,2.20
2022-11-05T09:52:41.258Z,2.30
2022-11-05T09:55:38.893Z,2.40
2022-11-05T09:58:27.468Z,2.85
2022-11-05T10:00:56.311Z,2.53
2022-11-05T10:03:26.197Z,2.70
2022-11-05T10:05:58.255Z,2.88
2022-11-05T10:08:30.801Z,2.72
2022-11-05T10:11:07.173Z,2.67
2022-11-05T10:13:40.018Z,3.08
2022-11-05T10:16:20.105Z,2.95
2022-11-05T10:18:53.572Z,2.92
2022-11-05T10:21:37.703Z,2.60
2022-11-05T10:24:16.718Z,3.40
2022-11-05T10:26:47.796Z,3.08
2022-11-05T10:29:22.537Z,2.70
2022-11-05T10:31:49.630Z,3.08
2022-11-05T10:34:17.821Z,2.90
2022-11-05T10:36:44.476Z,2.67
2022-11-05T10:39:17.646Z,3.05
2022-11-05T10:41:52.713Z,2.63
2022-11-05T10:44:25.971Z,2.75
2022-11-05T10:47:25.013Z,2.70
2022-11-05T10:50:01.035Z,2.85
2022-11-05T10:52:35.542Z,2.80
2022-11-05T10:55:07.032Z,2.70
2022-11-05T10:57:39.332Z,2.83
2022-11-05T11:00:15.428Z,2.60
2022-11-05T11:02:43.533Z,2.80
2022-11-05T11:05:31.579Z,3.05
2022-11-05T11:08:15.347Z,2.97
2022-11-05T11:10:55.539Z,2.88
2022-11-05T11:13:28.495Z,3.00
2022-11-05T11:16:13.374Z,3.10
2022-11-05T11:18:43.406Z,3.10
2022-11-05T11:21:16.775Z,3.08
2022-11-05T11:23:52.947Z,3.20
2022-11-05T11:26:21.729Z,3.50
2022-11-05T11:28:57.913Z,3.45
2022-11-05T11:31:27.397Z,3.47
2022-11-05T11:34:06.789Z,3.00
2022-11-05T11:36:38.285Z,3.45
2022-11-05T11:39:07.094Z,2.88
2022-11-05T11:41:41.802Z,3.70
2022-11-05T11:44:16.557Z,3.67
2022-11-05T11:46:48.357Z,3.60
2022-11-05T11:49:36.593Z,3.53
2022-11-05T11:52:12.878Z,3.15
2022-11-05T11:54:39.493Z,3.40
2022-11-05T11:57:27.428Z,3.55
2022-11-05T12:00:08.959Z,3.65
2022-11-05T12:02:42.287Z,3.38
2022-11-05T12:05:36.991Z,3.53
2022-11-05T12:08:33.032Z,3.40
2022-11-05T12:11:08.863Z,3.13
2022-11-05T12:13:41.242Z,3.50
2022-11-05T12:16:22.240Z,3.20
2022-11-05T12:19:15.939Z,3.78
2022-11-05T12:22:02.865Z,3.22
2022-11-05T12:24:47.471Z,3.85
2022-11-05T12:27:32.457Z,3.58
2022-11-05T12:30:11.798Z,3.80
2022-11-05T12:32:47.661Z,3.38
2022-11-05T12:35:57.387Z,3.60
2022-11-05T12:38:59.490Z,3.83
2022-11-05T12:44:36.242Z,3.60
2022-11-05T12:47:20.647Z,3.40
2022-11-05T12:50:02.470Z,3.20
2022-11-05T12:52:38.024Z,3.25
2022-11-05T12:55:13.459Z,3.20
2022-11-05T12:57:43.128Z,3.70
2022-11-05T13:00:27.797Z,3.13
2022-11-05T13:02:57.176Z,3.53
2022-11-05T13:05:45.246Z,3.30
2022-11-05T13:08:17.734Z,3.45
2022-11-05T13:10:52.425Z,3.90
2022-11-05T13:13:30.927Z,3.28
2022-11-05T13:16:02.094Z,3.30
2022-11-05T13:18:51.570Z,3.10
2022-11-05T13:21:23.305Z,2.90
2022-11-05T13:23:56.666Z,3.30
2022-11-05T13:26:56.978Z,3.22
2022-11-05T13:29:32.656Z,3.30
2022-11-05T13:32:10.717Z,3.80
2022-11-05T13:34:37.973Z,3.50
2022-11-05T13:37:26.832Z,3.10
2022-11-05T13:39:57.518Z,3.40
2022-11-05T13:42:27.104Z,3.30
2022-11-05T13:45:16.536Z,3.17
2022-11-05T13:47:55.881Z,3.10
2022-11-05T13:50:49.286Z,3.65
2022-11-05T13:53:41.085Z,3.67
2022-11-05T13:56:17.033Z,3.75
2022-11-05T13:59:01.445Z,3.72
2022-11-05T14:01:53.168Z,3.47
2022-11-05T14:04:44.785Z,3.75
2022-11-05T14:09:43.706Z,3.15
2022-11-05T14:12:46.888Z,3.13
2022-11-05T14:15:21.736Z,3.40
2022-11-05T14:18:02.141Z,3.20
2022-11-05T14:20:32.556Z,3.13
2022-11-05T14:23:17.624Z,2.90
2022-11-05T14:25:44.258Z,3.20
2022-11-05T14:28:36.284Z,2.97
2022-11-05T14:31:20.215Z,3.80
2022-11-05T14:34:20.384Z,3.45
2022-11-05T14:37:14.051Z,24.40
2022-11-05T14:39:41.646Z,17.55
2022-11-05T14:42:15.218Z,5.07
2022-11-05T14:44:59.565Z,6.80
2022-11-05T14:47:38.758Z,7.97
2022-11-05T14:50:16.159Z,4.03
2022-11-05T14:52:58.371Z,4.50
2022-11-05T14:55:38.109Z,4.00
2022-11-05T14:58:25.381Z,4.03
2022-11-05T15:00:52.972Z,3.50
2022-11-05T15:03:36.272Z,3.60
2022-11-05T15:06:08.208Z,3.97
2022-11-05T15:08:56.218Z,3.78
2022-11-05T15:11:29.703Z,4.07
2022-11-05T15:13:56.464Z,4.00
2022-11-05T15:16:25.482Z,3.58
2022-11-05T15:18:55.430Z,3.85
2022-11-05T15:21:22.638Z,3.92
2022-11-05T15:23:53.103Z,3.63
2022-11-05T15:26:27.983Z,3.60
2022-11-05T15:28:56.234Z,3.40
2022-11-05T15:31:34.715Z,4.10
2022-11-05T15:34:31.802Z,3.85
2022-11-05T15:37:22.726Z,3.67
2022-11-05T15:39:51.941Z,3.83
2022-11-05T15:42:26.784Z,3.45
2022-11-05T15:44:55.693Z,4.00
2022-11-05T15:47:25.546Z,3.90
2022-11-05T15:49:54.040Z,3.72
2022-11-05T15:52:23.764Z,3.85
2022-11-05T15:55:12.106Z,3.88
2022-11-05T15:57:46.432Z,3.67
2022-11-05T16:00:23.111Z,3.63
2022-11-05T16:03:32.265Z,3.50
2022-11-05T16:06:01.047Z,4.18
2022-11-05T16:08:30.082Z,3.92
2022-11-05T16:10:59.445Z,4.60
2022-11-05T16:13:32.398Z,4.20
2022-11-05T16:16:21.080Z,3.95
2022-11-05T16:18:48.056Z,4.20
2022-11-05T16:21:22.587Z,4.82
2022-11-05T16:23:49.199Z,4.70
2022-11-05T16:29:36.783Z,5.55
2022-11-05T16:32:28.517Z,4.70
2022-11-05T16:35:02.850Z,4.65
2022-11-05T16:37:37.600Z,5.88
2022-11-05T16:40:15.150Z,4.88
2022-11-05T16:42:42.342Z,4.47
2022-11-05T16:45:13.587Z,4.38
2022-11-05T16:50:21.350Z,3.75
2022-11-05T16:52:48.333Z,4.07
2022-11-05T16:55:16.715Z,5.00
2022-11-05T16:57:48.206Z,4.55
2022-11-05T17:00:17.528Z,3.65
2022-11-05T17:03:04.200Z,3.70
2022-11-05T17:05:50.751Z,5.35
2022-11-05T17:08:17.443Z,4.68
2022-11-05T17:10:44.298Z,4.30
2022-11-05T17:13:20.261Z,4.13
2022-11-05T17:15:49.570Z,3.45
2022-11-05T17:18:18.907Z,4.77
2022-11-05T17:20:49.214Z,7.30
2022-11-05T17:23:18.428Z,6.05
2022-11-05T17:25:49.301Z,5.70
2022-11-05T17:28:16.705Z,5.90
2022-11-05T17:30:49.256Z,6.38
2022-11-05T17:33:19.874Z,4.95
2022-11-05T17:35:46.741Z,4.60
2022-11-05T17:38:13.382Z,3.97
2022-11-05T17:40:40.430Z,3.53
2022-11-05T17:43:07.465Z,4.90
2022-11-05T17:45:34.709Z,4.40
2022-11-05T17:48:03.276Z,4.03
2022-11-05T17:50:30.207Z,4.43
2022-11-05T17:52:56.747Z,3.77
2022-11-05T17:55:23.454Z,3.80
2022-11-05T17:57:51.710Z,3.50
2022-11-05T18:00:23.051Z,3.33
2022-11-05T18:03:11.014Z,3.75
2022-11-05T18:06:02.718Z,4.43
2022-11-05T18:08:29.559Z,5.77
2022-11-05T18:10:56.399Z,5.13
2022-11-05T18:13:23.022Z,5.23
2022-11-05T18:15:54.519Z,4.60
2022-11-05T18:18:22.041Z,4.10
2022-11-05T18:20:49.805Z,4.00
2022-11-05T18:23:16.442Z,4.10
2022-11-05T18:25:43.031Z,4.50
2022-11-05T18:28:10.023Z,4.67
2022-11-05T18:30:38.657Z,4.40
2022-11-05T18:33:25.435Z,4.00
2022-11-05T18:35:52.065Z,4.00
2022-11-05T18:38:18.666Z,3.90
2022-11-05T18:40:45.309Z,3.97
2022-11-05T18:43:12.665Z,4.87
2022-11-05T18:45:39.709Z,4.40
2022-11-05T18:48:06.803Z,5.20
2022-11-05T18:50:33.410Z,5.07
2022-11-05T18:53:00.326Z,5.70
2022-11-05T18:55:26.911Z,5.10
2022-11-05T18:57:53.650Z,4.70
2022-11-05T19:00:20.288Z,4.57
2022-11-05T19:03:07.277Z,4.30
2022-11-05T19:05:34.483Z,4.37
2022-11-05T19:08:01.425Z,4.50
2022-11-05T19:10:28.157Z,4.40
2022-11-05T19:12:54.865Z,4.03
2022-11-05T19:15:21.523Z,4.20
2022-11-05T19:17:48.218Z,4.10
2022-11-05T19:20:14.909Z,4.67
2022-11-05T19:22:41.633Z,5.17
2022-11-05T19:25:08.276Z,4.10
2022-11-05T19:27:36.617Z,4.40
2022-11-05T19:30:04.527Z,4.80
2022-11-05T19:32:45.358Z,4.30
2022-11-05T19:35:11.994Z,4.80
2022-11-05T19:37:38.593Z,4.97
2022-11-05T19:40:05.776Z,4.70
2022-11-05T19:42:32.355Z,4.40
2022-11-05T19:48:07.302Z,4.50
2022-11-05T19:50:34.901Z,4.70
2022-11-05T19:53:01.848Z,5.10
2022-11-05T19:55:28.536Z,5.90
2022-11-05T19:57:55.147Z,5.13
2022-11-05T20:00:21.888Z,5.13
2022-11-05T20:03:11.138Z,5.13
2022-11-05T20:05:38.082Z,4.80
2022-11-05T20:08:05.010Z,5.90
2022-11-05T20:10:31.630Z,5.67
2022-11-05T20:12:58.205Z,6.27
2022-11-05T20:15:24.842Z,5.60
2022-11-05T20:17:53.013Z,5.83
2022-11-05T20:20:19.882Z,6.30
2022-11-05T20:22:46.823Z,5.80
2022-11-05T20:25:13.492Z,5.53
2022-11-05T20:27:40.239Z,5.73
2022-11-05T20:30:07.459Z,5.57
2022-11-05T20:32:45.774Z,5.27
2022-11-05T20:35:12.696Z,4.80
2022-11-05T20:37:39.326Z,5.50
2022-11-05T20:40:06.627Z,5.30
2022-11-05T20:42:35.849Z,5.83
2022-11-05T20:45:02.723Z,5.57
2022-11-05T20:47:29.302Z,5.90
2022-11-05T20:49:57.225Z,5.50
2022-11-05T20:52:24.148Z,5.07
2022-11-05T20:54:50.761Z,6.10
2022-11-05T20:57:17.303Z,6.20
2022-11-05T20:59:44.058Z,8.43
2022-11-05T21:02:12.035Z,10.00
2022-11-05T21:04:58.671Z,9.70
2022-11-05T21:07:45.388Z,9.00
2022-11-05T21:10:11.955Z,7.70
2022-11-05T21:12:38.543Z,6.00
2022-11-05T21:15:05.875Z,5.77
2022-11-05T21:17:32.453Z,6.37
2022-11-05T21:19:59.074Z,5.50
2022-11-05T21:22:25.639Z,5.00
2022-11-05T21:24:52.134Z,5.30
2022-11-05T21:27:18.741Z,5.30
2022-11-05T21:29:46.650Z,5.43
2022-11-05T21:32:13.247Z,5.23
2022-11-05T21:34:39.837Z,5.80
2022-11-05T21:37:06.894Z,5.27
2022-11-05T21:39:34.135Z,5.17
2022-11-05T21:42:01.168Z,6.10
2022-11-05T21:44:27.895Z,7.10
2022-11-05T21:46:57.901Z,7.40
2022-11-05T21:49:25.370Z,6.10
2022-11-05T21:52:11.121Z,6.30
2022-11-05T21:54:55.973Z,5.80
2022-11-05T21:57:40.860Z,4.93
2022-11-05T22:00:10.284Z,5.57
2022-11-05T22:02:59.877Z,5.67
2022-11-05T22:05:35.464Z,5.53
2022-11-05T22:08:03.062Z,5.27
2022-11-05T22:10:29.651Z,5.87
2022-11-05T22:12:56.210Z,6.50
2022-11-05T22:15:22.837Z,5.73
2022-11-05T22:17:51.215Z,5.90
2022-11-05T22:20:18.003Z,5.80
2022-11-05T22:22:45.198Z,5.33
2022-11-05T22:25:13.303Z,5.37
2022-11-05T22:27:39.845Z,5.40
2022-11-05T22:30:06.837Z,5.50
2022-11-05T22:32:53.326Z,5.50
2022-11-05T22:35:39.921Z,5.00
2022-11-05T22:38:06.539Z,5.27
2022-11-05T22:40:33.118Z,6.07
2022-11-05T22:42:59.714Z,5.40
2022-11-05T22:45:26.265Z,7.93
2022-11-05T22:47:52.858Z,6.73
2022-11-05T22:50:19.738Z,6.87
2022-11-05T22:52:46.337Z,5.97
2022-11-05T22:55:13.002Z,9.60
2022-11-05T22:57:39.568Z,8.17
2022-11-05T23:00:15.419Z,9.03
2022-11-05T23:03:02.973Z,6.67
2022-11-05T23:05:29.994Z,7.43
2022-11-05T23:08:15.573Z,7.83
2022-11-05T23:11:01.164Z,8.83
2022-11-05T23:13:27.816Z,9.70
2022-11-05T23:16:12.762Z,7.23
2022-11-05T23:18:57.975Z,10.43
2022-11-05T23:21:42.596Z,7.57
2022-11-05T23:24:09.686Z,5.63
2022-11-05T23:26:50.192Z,5.80
2022-11-05T23:29:25.068Z,7.13
2022-11-05T23:32:11.013Z,4.97
2022-11-05T23:34:38.341Z,5.27
2022-11-05T23:37:24.109Z,5.07
2022-11-05T23:39:51.182Z,5.27
2022-11-05T23:42:36.639Z,4.80
2022-11-05T23:45:23.357Z,5.40
2022-11-05T23:48:08.837Z,4.93
2022-11-05T23:50:39.793Z,5.00
2022-11-05T23:53:07.778Z,4.20
2022-11-05T23:55:34.612Z,4.30
2022-11-05T23:58:01.611Z,4.33
